Time;durP1;ratioP1;P1;durP2;ratioP2;P2;SDS_P1;SDS_P2;PMS_P1;PMS_P2;Temp;Humidity;BMP_temperature;BMP_pressure;BME280_temperature;BME280_humidity;BME280_pressure;Samples;Min_cycle;Max_cycle;Signal;HPM_P1;HPM_P2
2022/03/11 00:03:07;;;;;;;8.40;4.15;;;7.10;1.00;;;;;;10443077;28;84086;-56
2022/03/11 00:08:08;;;;;;;6.90;3.67;;;7.10;1.00;;;;;;10475625;27;85151;-57
2022/03/11 00:13:08;;;;;;;6.95;3.75;;;7.00;1.00;;;;;;10493918;27;84221;-57
2022/03/11 00:18:09;;;;;;;7.35;3.65;;;7.00;1.00;;;;;;10470931;27;84980;-52
2022/03/11 00:23:10;;;;;;;10.32;4.43;;;6.90;8.90;;;;;;10452523;28;84898;-56
2022/03/11 00:28:10;;;;;;;11.48;4.32;;;6.80;99.90;;;;;;10474469;27;84772;-56
2022/03/11 00:33:11;;;;;;;9.30;4.15;;;6.80;99.90;;;;;;10491718;27;84921;-54
2022/03/11 00:38:14;;;;;;;8.35;4.13;;;6.80;99.90;;;;;;10475843;27;84767;-52
2022/03/11 00:43:16;;;;;;;11.38;4.85;;;6.70;99.90;;;;;;10448922;28;84375;-52
2022/03/11 00:48:17;;;;;;;8.10;4.47;;;6.70;99.90;;;;;;10461272;27;84994;-53
2022/03/11 00:53:17;;;;;;;11.27;4.20;;;6.60;99.90;;;;;;10489611;27;85225;-53
2022/03/11 00:58:18;;;;;;;10.02;4.50;;;6.50;99.90;;;;;;10475254;27;84509;-56
2022/03/11 01:03:18;;;;;;;7.50;4.00;;;6.50;99.90;;;;;;10448629;28;84947;-55
2022/03/11 01:08:19;;;;;;;10.20;4.68;;;6.50;99.90;;;;;;10462128;27;85084;-54
2022/03/11 01:13:20;;;;;;;10.63;4.90;;;6.40;1.00;;;;;;10489836;27;84449;-53
2022/03/11 01:18:22;;;;;;;9.60;4.32;;;6.30;1.00;;;;;;10471787;27;84036;-54
2022/03/11 01:23:23;;;;;;;9.23;4.53;;;6.30;1.00;;;;;;10447236;27;85179;-53
2022/03/11 01:28:24;;;;;;;10.88;4.28;;;6.20;1.00;;;;;;10461266;27;84079;-54
2022/03/11 01:33:25;;;;;;;9.35;4.63;;;6.10;1.00;;;;;;10488283;27;84897;-52
2022/03/11 01:38:25;;;;;;;10.18;4.88;;;6.10;1.00;;;;;;10473129;27;84912;-56
2022/03/11 01:43:28;;;;;;;11.32;5.13;;;6.10;1.00;;;;;;10445743;28;84718;-57
2022/03/11 01:48:28;;;;;;;12.50;5.22;;;6.10;1.00;;;;;;10461262;27;84845;-53
2022/03/11 01:53:29;;;;;;;13.25;5.35;;;6.00;1.00;;;;;;10469087;27;85918;-53
2022/03/11 01:58:31;;;;;;;10.07;4.90;;;6.00;1.00;;;;;;10471358;27;84840;-50
2022/03/11 02:03:32;;;;;;;14.02;5.32;;;5.90;1.00;;;;;;10445958;27;84171;-56
2022/03/11 02:08:34;;;;;;;12.57;5.35;;;5.90;1.00;;;;;;10460051;27;84503;-53
2022/03/11 02:13:48;;;;;;;11.13;4.80;;;5.90;1.00;;;;;;10487226;27;86105;-54
2022/03/11 02:18:49;;;;;;;10.07;4.82;;;5.90;1.00;;;;;;10468127;27;84946;-54
2022/03/11 02:23:58;;;;;;;10.10;4.60;;;5.80;1.00;;;;;;10446021;27;84362;-52
2022/03/11 02:28:59;;;;;;;12.82;5.30;;;5.80;1.00;;;;;;10444948;27;84185;-55
2022/03/11 02:34:02;;;;;;;10.27;4.63;;;5.80;1.00;;;;;;10445314;28;84251;-54
2022/03/11 02:39:03;;;;;;;9.88;5.38;;;5.70;1.00;;;;;;10464542;27;84098;-57
2022/03/11 02:44:04;;;;;;;10.70;5.45;;;5.60;1.00;;;;;;10487279;27;84966;-54
2022/03/11 02:49:05;;;;;;;12.93;5.03;;;5.60;1.00;;;;;;10469355;27;84244;-53
2022/03/11 02:54:06;;;;;;;14.57;5.50;;;5.60;1.00;;;;;;10444942;27;85901;-56
2022/03/11 02:59:06;;;;;;;13.73;5.32;;;5.50;1.00;;;;;;10443785;27;85004;-54
2022/03/11 03:04:07;;;;;;;10.70;4.50;;;5.40;1.00;;;;;;10444678;28;85070;-53
2022/03/11 03:09:08;;;;;;;12.95;5.25;;;5.30;1.00;;;;;;10478395;27;86008;-56
2022/03/11 03:14:09;;;;;;;9.98;4.85;;;5.20;1.00;;;;;;10486331;27;84810;-57
2022/03/11 03:19:10;;;;;;;11.98;4.90;;;5.10;1.00;;;;;;10448729;27;84345;-54
2022/03/11 03:24:10;;;;;;;9.75;4.38;;;5.10;1.00;;;;;;10444045;27;85031;-56
2022/03/11 03:29:11;;;;;;;15.65;5.30;;;5.00;1.00;;;;;;10460253;27;87280;-53
2022/03/11 03:34:11;;;;;;;12.43;4.63;;;5.10;1.00;;;;;;10485357;27;84316;-53
2022/03/11 03:39:13;;;;;;;12.00;5.07;;;5.10;1.00;;;;;;10447894;27;86097;-56
2022/03/11 03:44:13;;;;;;;10.23;5.35;;;5.00;1.00;;;;;;10448111;27;87673;-55
2022/03/11 03:49:14;;;;;;;12.40;5.53;;;4.90;1.00;;;;;;10486415;27;84215;-55
2022/03/11 03:54:17;;;;;;;13.05;5.63;;;4.90;1.00;;;;;;10492678;27;85551;-56
2022/03/11 03:59:18;;;;;;;16.02;5.93;;;4.80;1.00;;;;;;10454945;27;84111;-54
2022/03/11 04:04:19;;;;;;;11.68;5.40;;;4.80;1.00;;;;;;10450160;27;84906;-53
2022/03/11 04:09:20;;;;;;;12.15;5.72;;;4.70;1.00;;;;;;10455736;27;84875;-56
2022/03/11 04:14:21;;;;;;;10.93;5.05;;;4.70;1.00;;;;;;10455555;27;85160;-54
2022/03/11 04:19:22;;;;;;;12.45;5.20;;;4.70;1.00;;;;;;10443822;28;84878;-55
2022/03/11 04:24:23;;;;;;;14.32;5.70;;;4.70;1.00;;;;;;10451660;27;84307;-56
2022/03/11 04:29:26;;;;;;;10.13;4.78;;;4.60;1.00;;;;;;10456784;27;85469;-56
2022/03/11 04:34:26;;;;;;;14.23;4.85;;;4.60;1.00;;;;;;10455283;28;85002;-56
2022/03/11 04:39:27;;;;;;;14.10;4.93;;;4.50;1.00;;;;;;10467824;27;85043;-58
2022/03/11 04:44:27;;;;;;;13.13;5.53;;;4.50;1.00;;;;;;10458843;28;84262;-56
2022/03/11 04:49:28;;;;;;;13.55;5.55;;;4.40;1.00;;;;;;10436257;27;86006;-53
2022/03/11 04:54:29;;;;;;;14.63;5.30;;;4.30;1.00;;;;;;10450668;27;84922;-56
2022/03/11 04:59:29;;;;;;;16.88;5.32;;;4.30;1.00;;;;;;10449692;27;84166;-53
2022/03/11 05:04:30;;;;;;;12.73;5.85;;;4.10;1.00;;;;;;10449965;28;84323;-56
2022/03/11 05:09:30;;;;;;;13.18;6.07;;;4.10;1.00;;;;;;10447578;27;84190;-54
2022/03/11 05:14:32;;;;;;;13.32;5.72;;;4.10;1.00;;;;;;10434654;28;85120;-57
2022/03/11 05:19:33;;;;;;;13.35;5.10;;;4.10;1.00;;;;;;10437087;27;84426;-57
2022/03/11 05:24:34;;;;;;;14.13;5.88;;;4.00;1.00;;;;;;10436819;28;86127;-54
2022/03/11 05:29:35;;;;;;;12.18;6.25;;;3.90;1.00;;;;;;10434644;27;84161;-55
2022/03/11 05:34:39;;;;;;;16.80;6.78;;;3.90;1.00;;;;;;10434040;28;85091;-55
2022/03/11 05:39:40;;;;;;;13.07;5.38;;;3.80;1.00;;;;;;10431575;27;84672;-57
2022/03/11 05:44:41;;;;;;;17.75;6.30;;;3.80;1.00;;;;;;10433345;28;84245;-57
2022/03/11 05:49:41;;;;;;;15.65;6.75;;;3.80;1.00;;;;;;10430832;27;85396;-53
2022/03/11 05:54:42;;;;;;;15.18;6.00;;;3.80;1.00;;;;;;10428521;27;84892;-54
2022/03/11 05:59:43;;;;;;;15.98;5.60;;;3.70;1.00;;;;;;10431419;27;84375;-55
2022/03/11 06:04:44;;;;;;;13.50;6.18;;;3.70;1.00;;;;;;10427758;28;86731;-55
2022/03/11 06:09:44;;;;;;;18.15;6.30;;;3.70;1.00;;;;;;10428560;27;84185;-55
2022/03/11 06:14:45;;;;;;;17.33;6.47;;;3.70;1.00;;;;;;10430114;27;84860;-54
2022/03/11 06:19:46;;;;;;;18.90;6.65;;;3.70;1.00;;;;;;10431487;27;84367;-56
2022/03/11 06:24:46;;;;;;;15.77;5.75;;;3.80;1.00;;;;;;10422936;28;84031;-57
2022/03/11 06:29:47;;;;;;;12.55;6.15;;;3.80;1.00;;;;;;10441643;27;84028;-58
2022/03/11 06:34:48;;;;;;;11.90;6.05;;;3.90;1.00;;;;;;10445954;27;84313;-55
2022/03/11 06:39:49;;;;;;;12.88;5.97;;;4.00;1.00;;;;;;10429779;27;85863;-51
2022/03/11 06:44:49;;;;;;;16.05;6.80;;;4.00;1.00;;;;;;10431277;27;84964;-54
2022/03/11 06:49:50;;;;;;;15.45;6.80;;;4.00;1.00;;;;;;10440817;27;85277;-55
2022/03/11 06:54:50;;;;;;;16.10;6.30;;;4.20;1.00;;;;;;10423997;28;84184;-53
2022/03/11 06:59:51;;;;;;;13.38;6.40;;;4.30;1.00;;;;;;10429101;27;84929;-56
2022/03/11 07:04:52;;;;;;;11.75;4.93;;;4.80;1.00;;;;;;10422652;28;84466;-55
2022/03/11 07:09:52;;;;;;;14.27;5.78;;;5.30;1.00;;;;;;10433987;27;85081;-56
2022/03/11 07:14:53;;;;;;;17.67;6.95;;;5.70;1.00;;;;;;10435832;27;84168;-54
2022/03/11 07:19:54;;;;;;;15.18;6.45;;;6.00;1.00;;;;;;10476282;27;84037;-54
2022/03/11 07:24:55;;;;;;;13.98;6.15;;;6.50;99.90;;;;;;10494127;27;84930;-49
2022/03/11 07:29:56;;;;;;;20.20;8.07;;;6.70;99.90;;;;;;10445538;27;85036;-50
2022/03/11 07:34:57;;;;;;;19.13;7.15;;;7.20;99.90;;;;;;10439581;27;85002;-51
2022/03/11 07:39:57;;;;;;;15.18;6.63;;;7.80;99.90;;;;;;10453580;27;84828;-63
2022/03/11 07:44:59;;;;;;;14.32;7.38;;;8.10;1.00;;;;;;10445516;27;84252;-63
2022/03/11 07:50:00;;;;;;;17.67;7.50;;;8.60;1.00;;;;;;10443090;27;84289;-61
2022/03/11 07:55:01;;;;;;;20.57;10.57;;;8.80;99.90;;;;;;10449251;28;85106;-54
2022/03/11 08:00:06;;;;;;;18.77;8.40;;;9.00;99.90;;;;;;10443507;27;84508;-65
2022/03/11 08:05:17;;;;;;;13.27;6.85;;;9.40;1.00;;;;;;10432106;27;84576;-64
2022/03/11 08:10:18;;;;;;;15.02;7.45;;;9.40;1.00;;;;;;10447969;28;85382;-66
2022/03/11 08:15:19;;;;;;;22.05;8.52;;;9.40;99.90;;;;;;10445605;28;87041;-60
2022/03/11 08:20:20;;;;;;;16.30;7.00;;;9.30;99.90;;;;;;10468451;27;84395;-65
2022/03/11 08:25:26;;;;;;;22.35;7.88;;;9.40;90.40;;;;;;10496536;27;84436;-64
2022/03/11 08:30:27;;;;;;;19.27;8.40;;;9.70;1.00;;;;;;10504073;27;85163;-63
2022/03/11 08:35:28;;;;;;;17.33;8.10;;;9.90;99.90;;;;;;10506426;27;84371;-62
2022/03/11 08:40:29;;;;;;;16.92;7.40;;;10.50;1.00;;;;;;10506784;27;84302;-61
2022/03/11 08:45:32;;;;;;;16.80;7.70;;;10.90;1.00;;;;;;10463098;27;84390;-62
2022/03/11 08:50:33;;;;;;;18.23;7.75;;;11.20;99.90;;;;;;10470847;27;84326;-59
2022/03/11 08:55:34;;;;;;;15.13;7.82;;;11.20;1.00;;;;;;10485638;27;85002;-55
2022/03/11 09:00:35;;;;;;;15.55;7.57;;;12.60;1.00;;;;;;10458363;27;84714;-55
2022/03/11 09:05:37;;;;;;;16.15;7.95;;;12.70;99.90;;;;;;10447714;27;85302;-54
2022/03/11 09:10:38;;;;;;;14.60;7.85;;;13.00;1.00;;;;;;10448198;27;84284;-54
2022/03/11 09:15:38;;;;;;;14.52;7.47;;;13.00;1.00;;;;;;10470703;27;84356;-46
2022/03/11 09:20:40;;;;;;;16.08;7.45;;;13.80;1.00;;;;;;10485646;27;84185;-63
2022/03/11 09:25:40;;;;;;;17.10;7.70;;;13.90;1.00;;;;;;10467443;27;84140;-55
2022/03/11 09:30:41;;;;;;;15.43;7.63;;;14.30;1.00;;;;;;10475660;27;84506;-54
2022/03/11 09:35:42;;;;;;;11.63;7.03;;;14.00;99.90;;;;;;10489380;27;85063;-50
2022/03/11 09:40:44;;;;;;;13.45;7.18;;;15.40;99.90;;;;;;10484400;27;84916;-56
2022/03/11 09:45:45;;;;;;;13.07;7.35;;;14.90;1.00;;;;;;10487608;27;84137;-52
2022/03/11 09:50:46;;;;;;;14.77;7.40;;;14.70;1.00;;;;;;10511186;22;84944;-59
2022/03/11 09:55:47;;;;;;;12.25;6.57;;;15.10;1.00;;;;;;10367393;28;84385;-51
2022/03/11 10:00:48;;;;;;;15.35;7.13;;;14.40;1.00;;;;;;10367973;28;86923;-55
2022/03/11 10:05:53;;;;;;;13.20;6.88;;;14.20;1.00;;;;;;10368393;28;85192;-55
2022/03/11 10:11:19;;;;;;;12.25;6.30;;;14.70;99.90;;;;;;10369594;28;84318;-56
2022/03/11 10:16:25;;;;;;;9.73;6.05;;;15.20;99.90;;;;;;10368554;28;85012;-55
2022/03/11 10:21:36;;;;;;;11.38;6.07;;;14.70;99.90;;;;;;10368699;28;84306;-55
2022/03/11 10:26:41;;;;;;;15.02;6.40;;;15.00;99.90;;;;;;10367486;28;84067;-53
2022/03/11 10:31:46;;;;;;;10.30;5.90;;;15.40;99.90;;;;;;10367508;28;85072;-56
2022/03/11 10:36:53;;;;;;;10.68;6.15;;;16.30;99.90;;;;;;10366632;28;84206;-57
2022/03/11 10:41:56;;;;;;;13.27;6.65;;;16.50;1.00;;;;;;10334641;28;85269;-50
2022/03/11 10:47:24;;;;;;;10.85;6.45;;;16.40;1.00;;;;;;10366088;28;84957;-49
2022/03/11 10:52:44;;;;;;;11.23;6.47;;;16.90;1.00;;;;;;10362063;28;84202;-54
2022/03/11 10:57:46;;;;;;;10.73;6.60;;;17.50;1.00;;;;;;10363907;28;85020;-55
2022/03/11 11:02:48;;;;;;;10.73;6.50;;;18.20;1.00;;;;;;10366811;28;84068;-53
2022/03/11 11:07:49;;;;;;;14.15;6.82;;;17.50;1.00;;;;;;10365817;28;84984;-54
2022/03/11 11:12:51;;;;;;;14.85;6.95;;;16.90;1.00;;;;;;10365612;28;84261;-59
2022/03/11 11:17:53;;;;;;;10.18;6.13;;;17.10;1.00;;;;;;10365573;28;84139;-59
2022/03/11 11:22:54;;;;;;;15.52;6.55;;;17.10;1.00;;;;;;10367449;28;84127;-56
2022/03/11 11:27:59;;;;;;;11.20;5.55;;;16.30;1.00;;;;;;10362190;28;84125;-53
2022/03/11 11:33:00;;;;;;;12.70;6.60;;;15.90;1.00;;;;;;10332007;28;86520;-53
2022/03/11 11:38:03;;;;;;;10.75;5.88;;;16.40;1.00;;;;;;10326462;28;84299;-53
2022/03/11 11:43:13;;;;;;;8.85;6.10;;;16.70;1.00;;;;;;10305343;28;84103;-49
2022/03/11 11:48:40;;;;;;;9.75;6.13;;;17.50;1.00;;;;;;10326186;28;84194;-48
2022/03/11 11:53:53;;;;;;;12.10;5.75;;;17.30;1.00;;;;;;10365780;28;84334;-49
2022/03/11 11:58:57;;;;;;;10.80;4.85;;;16.80;1.00;;;;;;10346419;28;86959;-51
2022/03/11 12:03:57;;;;;;;9.27;5.68;;;16.40;1.00;;;;;;10370169;28;84875;-47
2022/03/11 12:08:58;;;;;;;8.43;5.00;;;17.30;1.00;;;;;;10371213;28;84970;-53
2022/03/11 12:14:02;;;;;;;10.00;5.63;;;17.20;1.00;;;;;;10338098;28;87229;-49
2022/03/11 12:19:03;;;;;;;8.40;5.05;;;17.40;1.00;;;;;;10371256;28;84813;-46
2022/03/11 12:24:30;;;;;;;9.90;5.38;;;18.40;1.00;;;;;;10371154;28;84295;-50
2022/03/11 12:29:36;;;;;;;11.23;5.85;;;18.20;1.00;;;;;;10370960;28;84929;-50
2022/03/11 12:34:38;;;;;;;8.45;5.68;;;18.30;1.00;;;;;;10365862;28;85057;-48
2022/03/11 12:39:39;;;;;;;9.55;5.75;;;17.90;1.00;;;;;;10370523;28;84180;-47
2022/03/11 12:44:47;;;;;;;9.23;5.32;;;18.00;1.00;;;;;;10369962;28;84920;-52
2022/03/11 12:50:03;;;;;;;9.90;6.10;;;18.70;1.00;;;;;;10370222;28;84499;-50
2022/03/11 12:55:20;;;;;;;8.40;5.70;;;19.20;1.00;;;;;;10316107;28;84836;-49
2022/03/11 13:00:23;;;;;;;10.68;5.68;;;18.80;1.00;;;;;;10352702;28;84972;-47
2022/03/11 13:05:25;;;;;;;11.10;5.63;;;19.20;99.90;;;;;;10370461;28;84108;-45
2022/03/11 13:10:26;;;;;;;9.38;5.60;;;18.70;99.90;;;;;;10370287;28;84056;-50
2022/03/11 13:15:31;;;;;;;11.18;6.10;;;18.10;99.90;;;;;;10366162;28;84734;-47
2022/03/11 13:20:40;;;;;;;8.65;5.38;;;18.00;99.90;;;;;;10370501;28;84970;-49
2022/03/11 13:26:04;;;;;;;10.43;5.75;;;18.40;99.90;;;;;;10362650;28;84080;-48
2022/03/11 13:31:31;;;;;;;8.05;4.82;;;18.60;99.90;;;;;;10358084;28;84251;-46
2022/03/11 13:36:32;;;;;;;7.65;5.05;;;19.00;99.90;;;;;;10331998;28;84789;-49
2022/03/11 13:41:35;;;;;;;9.15;5.32;;;18.70;99.90;;;;;;10345199;28;84120;-51
2022/03/11 13:46:41;;;;;;;10.40;5.80;;;18.90;99.90;;;;;;10327347;28;84139;-47
2022/03/11 13:51:43;;;;;;;9.45;5.30;;;19.40;99.90;;;;;;10342459;28;85139;-52
2022/03/11 13:56:43;;;;;;;7.70;5.38;;;19.20;99.90;;;;;;10368549;28;85056;-50
2022/03/11 14:01:44;;;;;;;8.80;5.38;;;19.00;99.90;;;;;;10368350;28;90949;-52
2022/03/11 14:06:45;;;;;;;7.72;4.85;;;18.30;99.90;;;;;;10337348;28;85914;-47
2022/03/11 14:11:56;;;;;;;9.73;5.28;;;17.10;99.90;;;;;;10326207;28;97971;-46
2022/03/11 14:16:59;;;;;;;9.00;5.18;;;16.10;99.90;;;;;;10348845;28;84820;-45
2022/03/11 14:22:00;;;;;;;8.05;4.32;;;15.60;99.90;;;;;;10326956;28;84894;-44
2022/03/11 14:27:01;;;;;;;8.48;4.75;;;15.60;99.90;;;;;;10357738;28;93545;-45
2022/03/11 14:32:04;;;;;;;7.35;4.25;;;15.80;99.90;;;;;;10328791;28;84267;-48
2022/03/11 14:37:06;;;;;;;8.38;4.38;;;16.00;99.90;;;;;;10326135;28;84942;-51
2022/03/11 14:42:06;;;;;;;7.43;4.47;;;15.60;99.90;;;;;;10357306;28;84048;-51
2022/03/11 14:47:08;;;;;;;8.00;4.65;;;16.00;99.90;;;;;;10365522;28;84105;-48
2022/03/11 14:52:09;;;;;;;10.27;5.18;;;16.50;99.90;;;;;;10364833;28;84194;-51
2022/03/11 14:57:10;;;;;;;8.90;4.00;;;17.20;99.90;;;;;;10325057;28;85084;-49
2022/03/11 15:02:11;;;;;;;8.90;4.25;;;17.20;99.90;;;;;;10325192;28;84806;-49
2022/03/11 15:07:12;;;;;;;8.73;4.50;;;17.20;99.90;;;;;;10324750;28;85171;-57
2022/03/11 15:12:12;;;;;;;7.82;4.05;;;16.90;99.90;;;;;;10360331;28;84119;-47
2022/03/11 15:17:13;;;;;;;5.95;3.78;;;16.60;99.90;;;;;;10365373;28;84341;-53
2022/03/11 15:22:14;;;;;;;7.00;4.35;;;16.10;99.90;;;;;;10364530;28;87153;-52
2022/03/11 15:27:15;;;;;;;5.93;3.78;;;15.50;99.90;;;;;;10338453;28;85011;-51
2022/03/11 15:32:16;;;;;;;9.05;4.78;;;15.10;99.90;;;;;;10331502;28;87075;-51
2022/03/11 15:37:19;;;;;;;6.82;3.55;;;14.80;99.90;;;;;;10339353;28;84120;-49
2022/03/11 15:42:20;;;;;;;6.70;3.90;;;14.40;99.90;;;;;;10346390;28;84838;-54
2022/03/11 15:47:21;;;;;;;6.35;3.58;;;14.30;99.90;;;;;;10352682;28;85304;-53
2022/03/11 15:52:22;;;;;;;7.10;4.03;;;14.20;99.90;;;;;;10378178;22;84980;-62
2022/03/11 15:57:22;;;;;;;7.10;3.40;;;14.10;99.90;;;;;;10371912;28;85520;-53
2022/03/11 16:02:23;;;;;;;5.82;3.63;;;14.10;99.90;;;;;;10362246;28;84965;-47
2022/03/11 16:07:23;;;;;;;4.88;2.97;;;14.10;99.90;;;;;;10326188;28;84252;-47
2022/03/11 16:12:24;;;;;;;6.60;3.28;;;14.00;99.90;;;;;;10327848;28;84289;-51
2022/03/11 16:17:25;;;;;;;4.90;2.92;;;14.00;99.90;;;;;;10332550;28;84518;-48
2022/03/11 16:22:27;;;;;;;6.75;3.13;;;13.90;99.90;;;;;;10327274;28;85745;-48
2022/03/11 16:27:27;;;;;;;7.18;3.22;;;13.80;99.90;;;;;;10329142;28;84947;-54
2022/03/11 16:32:29;;;;;;;5.80;2.30;;;13.70;99.90;;;;;;10308898;28;86076;-49
2022/03/11 16:37:30;;;;;;;6.25;2.90;;;13.70;99.90;;;;;;10297070;28;85065;-54
2022/03/11 16:42:31;;;;;;;4.97;2.50;;;13.60;99.90;;;;;;10325318;28;84200;-54
2022/03/11 16:47:31;;;;;;;4.60;2.60;;;13.50;99.90;;;;;;10330028;28;85038;-53
2022/03/11 16:52:32;;;;;;;3.53;2.55;;;13.30;99.90;;;;;;10331419;28;84309;-49
2022/03/11 16:57:32;;;;;;;4.97;2.97;;;13.20;99.90;;;;;;10330360;28;84872;-52
2022/03/11 17:02:33;;;;;;;4.38;2.28;;;13.10;99.90;;;;;;10313096;28;87325;-52
2022/03/11 17:07:34;;;;;;;4.55;2.50;;;12.90;99.90;;;;;;10311688;28;86167;-52
2022/03/11 17:12:36;;;;;;;4.55;2.65;;;12.80;99.90;;;;;;10312721;28;84746;-51
2022/03/11 17:17:38;;;;;;;5.68;2.70;;;12.70;99.90;;;;;;10321549;28;84508;-51
2022/03/11 17:22:38;;;;;;;4.90;2.55;;;12.50;99.90;;;;;;10326116;28;84855;-50
2022/03/11 17:27:39;;;;;;;5.78;2.33;;;12.30;99.90;;;;;;10326840;28;84173;-51
2022/03/11 17:32:40;;;;;;;3.50;2.10;;;12.20;99.90;;;;;;10323860;28;84172;-50
2022/03/11 17:37:41;;;;;;;4.25;2.83;;;12.10;99.90;;;;;;10328662;28;85086;-54
2022/03/11 17:42:41;;;;;;;4.05;2.47;;;12.00;99.90;;;;;;10329798;28;85133;-52
2022/03/11 17:47:44;;;;;;;5.60;2.45;;;11.90;99.90;;;;;;10331478;28;84548;-53
2022/03/11 17:52:45;;;;;;;6.30;2.50;;;11.80;99.90;;;;;;10331404;28;84940;-49
2022/03/11 17:57:47;;;;;;;5.05;2.80;;;11.60;99.90;;;;;;10340121;28;85576;-53
2022/03/11 18:02:49;;;;;;;6.10;2.55;;;11.60;99.90;;;;;;10362936;28;84778;-51
2022/03/11 18:07:50;;;;;;;4.88;2.67;;;11.50;99.90;;;;;;10321824;28;85510;-51
2022/03/11 18:12:50;;;;;;;7.50;2.78;;;11.40;99.90;;;;;;10329115;28;86436;-50
2022/03/11 18:17:51;;;;;;;4.15;2.63;;;11.30;99.90;;;;;;10328491;28;85073;-53
2022/03/11 18:22:52;;;;;;;3.85;2.20;;;11.20;99.90;;;;;;10310177;28;84985;-54
2022/03/11 18:27:53;;;;;;;5.22;2.83;;;11.10;99.90;;;;;;10310507;28;86037;-53
2022/03/11 18:32:54;;;;;;;3.95;2.85;;;11.00;99.90;;;;;;10328594;28;84667;-54
2022/03/11 18:37:55;;;;;;;7.20;2.80;;;10.90;99.90;;;;;;10326195;28;84924;-52
2022/03/11 18:42:56;;;;;;;6.38;2.72;;;10.80;99.90;;;;;;10327398;28;84121;-54
2022/03/11 18:47:56;;;;;;;6.70;2.80;;;10.80;99.90;;;;;;10307625;28;85671;-52
2022/03/11 18:52:59;;;;;;;4.20;2.40;;;10.80;99.90;;;;;;10315654;28;84855;-54
2022/03/11 18:57:59;;;;;;;2.90;2.05;;;10.70;99.90;;;;;;10324319;28;84335;-52
2022/03/11 19:03:02;;;;;;;5.25;2.55;;;10.60;99.90;;;;;;10327309;28;84169;-51
2022/03/11 19:08:03;;;;;;;4.13;2.55;;;10.50;99.90;;;;;;10323852;28;84159;-50
2022/03/11 19:13:04;;;;;;;5.70;2.60;;;10.40;99.90;;;;;;10323197;28;86444;-54
2022/03/11 19:18:04;;;;;;;10.63;2.92;;;10.40;99.90;;;;;;10325982;28;84134;-52
2022/03/11 19:23:05;;;;;;;6.57;3.10;;;10.30;99.90;;;;;;10326268;28;84127;-52
2022/03/11 19:28:06;;;;;;;5.60;3.08;;;10.20;99.90;;;;;;10323210;28;84898;-49
2022/03/11 19:33:07;;;;;;;5.97;2.80;;;10.10;99.90;;;;;;10325027;28;84083;-51
2022/03/11 19:38:10;;;;;;;4.75;2.40;;;10.10;99.90;;;;;;10304173;28;86258;-52
2022/03/11 19:43:10;;;;;;;6.03;2.80;;;9.90;99.90;;;;;;10311340;28;84942;-53
2022/03/11 19:48:11;;;;;;;9.40;2.65;;;9.80;99.90;;;;;;10314285;28;84952;-48
2022/03/11 19:53:13;;;;;;;4.63;2.88;;;9.70;99.90;;;;;;10315283;28;84272;-48
2022/03/11 19:58:16;;;;;;;3.95;2.80;;;9.70;99.90;;;;;;10312770;28;85053;-49
2022/03/11 20:03:18;;;;;;;5.15;2.72;;;9.60;99.90;;;;;;10311547;28;84921;-52
2022/03/11 20:08:18;;;;;;;4.65;2.90;;;9.50;99.90;;;;;;10313289;28;85323;-52
2022/03/11 20:13:19;;;;;;;8.10;3.20;;;9.50;99.90;;;;;;10316140;28;84957;-54
2022/03/11 20:18:20;;;;;;;6.95;3.22;;;9.30;99.90;;;;;;10317121;28;85036;-52
2022/03/11 20:23:21;;;;;;;6.25;3.17;;;9.20;99.90;;;;;;10291890;28;86617;-54
2022/03/11 20:28:24;;;;;;;8.98;2.97;;;9.10;99.90;;;;;;10296010;28;85205;-52
2022/03/11 20:33:26;;;;;;;5.43;3.17;;;9.00;99.90;;;;;;10304986;28;86966;-51
2022/03/11 20:38:27;;;;;;;5.50;2.67;;;8.90;99.90;;;;;;10302762;28;87444;-55
2022/03/11 20:43:28;;;;;;;5.35;2.78;;;8.80;99.90;;;;;;10288559;28;84261;-56
2022/03/11 20:48:29;;;;;;;6.70;3.22;;;8.80;99.90;;;;;;10300558;28;86074;-55
2022/03/11 20:53:32;;;;;;;6.13;2.95;;;8.80;99.90;;;;;;10306740;28;85713;-63
2022/03/11 20:58:32;;;;;;;6.13;3.40;;;8.70;99.90;;;;;;10299733;28;85927;-55
2022/03/11 21:03:35;;;;;;;6.88;3.50;;;8.60;99.90;;;;;;10327572;28;85033;-51
2022/03/11 21:08:37;;;;;;;6.30;3.05;;;8.50;99.90;;;;;;10326640;28;84609;-52
2022/03/11 21:13:39;;;;;;;3.95;3.00;;;8.40;99.90;;;;;;10299074;28;86323;-50
2022/03/11 21:18:41;;;;;;;5.38;3.17;;;8.40;99.90;;;;;;10318653;28;84031;-53
2022/03/11 21:23:42;;;;;;;7.65;3.63;;;8.40;99.90;;;;;;10323054;28;84303;-51
2022/03/11 21:28:43;;;;;;;5.35;2.85;;;8.40;99.90;;;;;;10322550;28;84347;-52
2022/03/11 21:33:44;;;;;;;7.18;3.13;;;8.40;99.90;;;;;;10315441;28;84323;-54
2022/03/11 21:38:45;;;;;;;3.63;2.20;;;8.50;99.90;;;;;;10316035;28;85049;-48
2022/03/11 21:43:47;;;;;;;7.13;3.33;;;8.50;99.90;;;;;;10300281;28;85919;-51
2022/03/11 21:48:47;;;;;;;6.22;2.70;;;8.50;99.90;;;;;;10304306;28;86558;-53
2022/03/11 21:53:52;;;;;;;8.32;3.88;;;8.50;99.90;;;;;;10388540;22;85514;-55
2022/03/11 21:58:53;;;;;;;6.97;3.35;;;8.50;99.90;;;;;;10486594;27;86791;-55
2022/03/11 22:03:54;;;;;;;5.80;3.00;;;8.50;99.90;;;;;;10466129;27;85724;-53
2022/03/11 22:08:54;;;;;;;7.72;3.13;;;8.50;99.90;;;;;;10443912;28;85259;-56
2022/03/11 22:13:56;;;;;;;5.20;2.97;;;8.50;99.90;;;;;;10448017;28;85016;-56
2022/03/11 22:18:57;;;;;;;6.22;2.88;;;8.50;99.90;;;;;;10450926;28;84247;-52
2022/03/11 22:23:57;;;;;;;5.80;3.00;;;8.50;99.90;;;;;;10453709;28;86512;-55
2022/03/11 22:28:58;;;;;;;5.05;2.75;;;8.50;99.90;;;;;;10455027;28;84640;-54
2022/03/11 22:33:59;;;;;;;4.43;2.70;;;8.50;99.90;;;;;;10452397;27;84270;-55
2022/03/11 22:39:00;;;;;;;7.10;3.10;;;8.40;99.90;;;;;;10450490;28;84977;-55
2022/03/11 22:44:06;;;;;;;6.47;2.78;;;8.40;99.90;;;;;;10451538;27;84527;-55
2022/03/11 22:49:09;;;;;;;5.78;2.70;;;8.30;99.90;;;;;;10446798;28;85813;-54
2022/03/11 22:54:14;;;;;;;6.28;3.20;;;8.30;99.90;;;;;;10450881;27;84326;-56
2022/03/11 22:59:15;;;;;;;7.82;3.30;;;8.30;99.90;;;;;;10448807;28;85959;-56
2022/03/11 23:04:16;;;;;;;7.68;2.97;;;8.20;99.90;;;;;;10450340;27;84094;-55
2022/03/11 23:09:29;;;;;;;8.27;3.30;;;8.30;99.90;;;;;;10455457;28;84171;-56
2022/03/11 23:14:32;;;;;;;5.78;2.90;;;8.20;99.90;;;;;;10440566;27;84181;-57
2022/03/11 23:19:34;;;;;;;7.50;2.63;;;8.10;99.90;;;;;;10438710;28;85021;-55
2022/03/11 23:24:37;;;;;;;6.75;3.25;;;8.10;99.90;;;;;;10453269;28;85084;-56
2022/03/11 23:29:38;;;;;;;5.43;2.95;;;8.10;99.90;;;;;;10450952;28;86651;-54
2022/03/11 23:34:39;;;;;;;4.68;3.05;;;8.00;99.90;;;;;;10457351;27;85700;-56
2022/03/11 23:39:40;;;;;;;9.88;3.25;;;8.00;99.90;;;;;;10452377;28;84295;-54
2022/03/11 23:44:42;;;;;;;6.13;2.88;;;8.00;99.90;;;;;;10452657;28;84097;-52
2022/03/11 23:49:42;;;;;;;6.18;3.20;;;7.90;99.90;;;;;;10450697;28;85436;-56
2022/03/11 23:54:43;;;;;;;5.63;2.75;;;7.80;99.90;;;;;;10447766;28;86819;-55
2022/03/11 23:59:44;;;;;;;10.57;3.22;;;7.70;99.90;;;;;;10451662;28;84346;-55
